sensor_id;sensor_type;location;lat;lon;timestamp;P1;durP1;ratioP1;P2;durP2;ratioP2
9254;SDS011;4663;49.120;9.730;2023-08-24T00:01:36;53.15;;;50.30;;
9254;SDS011;4663;49.120;9.730;2023-08-24T00:04:01;55.72;;;52.55;;
9254;SDS011;4663;49.120;9.730;2023-08-24T00:06:27;54.20;;;51.10;;
9254;SDS011;4663;49.120;9.730;2023-08-24T00:08:52;51.47;;;48.38;;
9254;SDS011;4663;49.120;9.730;2023-08-24T00:11:18;49.42;;;46.83;;
9254;SDS011;4663;49.120;9.730;2023-08-24T00:13:43;45.20;;;42.70;;
9254;SDS011;4663;49.120;9.730;2023-08-24T00:16:16;46.42;;;43.63;;
9254;SDS011;4663;49.120;9.730;2023-08-24T00:18:42;44.75;;;42.00;;
9254;SDS011;4663;49.120;9.730;2023-08-24T00:21:07;45.47;;;42.88;;
9254;SDS011;4663;49.120;9.730;2023-08-24T00:23:33;41.90;;;39.47;;
9254;SDS011;4663;49.120;9.730;2023-08-24T00:25:58;44.17;;;41.58;;
9254;SDS011;4663;49.120;9.730;2023-08-24T00:28:25;47.00;;;44.08;;
9254;SDS011;4663;49.120;9.730;2023-08-24T00:30:50;45.60;;;43.10;;
9254;SDS011;4663;49.120;9.730;2023-08-24T00:33:16;48.67;;;45.83;;
9254;SDS011;4663;49.120;9.730;2023-08-24T00:35:41;43.92;;;41.42;;
9254;SDS011;4663;49.120;9.730;2023-08-24T00:38:07;43.25;;;40.78;;
9254;SDS011;4663;49.120;9.730;2023-08-24T00:40:32;44.20;;;41.75;;
9254;SDS011;4663;49.120;9.730;2023-08-24T00:42:57;43.97;;;41.55;;
9254;SDS011;4663;49.120;9.730;2023-08-24T00:45:23;43.40;;;40.80;;
9254;SDS011;4663;49.120;9.730;2023-08-24T00:47:48;42.08;;;39.58;;
9254;SDS011;4663;49.120;9.730;2023-08-24T00:50:15;44.20;;;41.50;;
9254;SDS011;4663;49.120;9.730;2023-08-24T00:52:42;42.60;;;40.13;;
9254;SDS011;4663;49.120;9.730;2023-08-24T00:55:08;41.90;;;39.40;;
9254;SDS011;4663;49.120;9.730;2023-08-24T00:57:34;46.13;;;43.58;;
9254;SDS011;4663;49.120;9.730;2023-08-24T01:00:03;42.50;;;39.70;;
9254;SDS011;4663;49.120;9.730;2023-08-24T01:02:38;43.70;;;41.15;;
9254;SDS011;4663;49.120;9.730;2023-08-24T01:05:04;43.92;;;41.25;;
9254;SDS011;4663;49.120;9.730;2023-08-24T01:07:32;45.63;;;42.95;;
9254;SDS011;4663;49.120;9.730;2023-08-24T01:10:02;45.92;;;43.22;;
9254;SDS011;4663;49.120;9.730;2023-08-24T01:15:04;43.90;;;41.30;;
9254;SDS011;4663;49.120;9.730;2023-08-24T01:17:31;42.47;;;39.85;;
9254;SDS011;4663;49.120;9.730;2023-08-24T01:19:58;43.40;;;40.72;;
9254;SDS011;4663;49.120;9.730;2023-08-24T01:25:14;44.95;;;42.55;;
9254;SDS011;4663;49.120;9.730;2023-08-24T01:27:42;47.15;;;44.33;;
9254;SDS011;4663;49.120;9.730;2023-08-24T01:30:09;51.90;;;48.92;;
9254;SDS011;4663;49.120;9.730;2023-08-24T01:32:35;52.50;;;49.40;;
9254;SDS011;4663;49.120;9.730;2023-08-24T01:35:05;57.10;;;53.75;;
9254;SDS011;4663;49.120;9.730;2023-08-24T01:37:33;63.90;;;60.22;;
9254;SDS011;4663;49.120;9.730;2023-08-24T01:42:34;58.50;;;55.33;;
9254;SDS011;4663;49.120;9.730;2023-08-24T01:45:07;59.58;;;56.47;;
9254;SDS011;4663;49.120;9.730;2023-08-24T01:47:35;57.58;;;54.55;;
9254;SDS011;4663;49.120;9.730;2023-08-24T01:50:02;58.92;;;55.38;;
9254;SDS011;4663;49.120;9.730;2023-08-24T01:52:28;53.78;;;50.97;;
9254;SDS011;4663;49.120;9.730;2023-08-24T01:54:55;54.63;;;51.63;;
9254;SDS011;4663;49.120;9.730;2023-08-24T01:57:20;53.55;;;50.83;;
9254;SDS011;4663;49.120;9.730;2023-08-24T01:59:45;53.53;;;50.55;;
9254;SDS011;4663;49.120;9.730;2023-08-24T02:02:11;49.20;;;46.03;;
9254;SDS011;4663;49.120;9.730;2023-08-24T02:04:36;52.50;;;49.55;;
9254;SDS011;4663;49.120;9.730;2023-08-24T02:07:01;53.20;;;50.28;;
9254;SDS011;4663;49.120;9.730;2023-08-24T02:09:27;56.15;;;53.08;;
9254;SDS011;4663;49.120;9.730;2023-08-24T02:11:52;56.97;;;53.85;;
9254;SDS011;4663;49.120;9.730;2023-08-24T02:14:17;57.03;;;53.97;;
9254;SDS011;4663;49.120;9.730;2023-08-24T02:16:43;65.47;;;61.92;;
9254;SDS011;4663;49.120;9.730;2023-08-24T02:19:08;66.95;;;63.50;;
9254;SDS011;4663;49.120;9.730;2023-08-24T02:21:36;72.95;;;69.13;;
9254;SDS011;4663;49.120;9.730;2023-08-24T02:24:02;73.70;;;69.78;;
9254;SDS011;4663;49.120;9.730;2023-08-24T02:26:29;71.93;;;68.28;;
9254;SDS011;4663;49.120;9.730;2023-08-24T02:28:54;63.80;;;60.45;;
9254;SDS011;4663;49.120;9.730;2023-08-24T02:31:20;60.38;;;57.03;;
9254;SDS011;4663;49.120;9.730;2023-08-24T02:33:45;66.00;;;62.45;;
9254;SDS011;4663;49.120;9.730;2023-08-24T02:36:10;67.18;;;63.70;;
9254;SDS011;4663;49.120;9.730;2023-08-24T02:38:36;70.20;;;66.65;;
9254;SDS011;4663;49.120;9.730;2023-08-24T02:41:02;74.40;;;70.57;;
9254;SDS011;4663;49.120;9.730;2023-08-24T02:43:31;72.05;;;68.40;;
9254;SDS011;4663;49.120;9.730;2023-08-24T02:46:07;69.63;;;66.00;;
9254;SDS011;4663;49.120;9.730;2023-08-24T02:48:33;68.68;;;65.03;;
9254;SDS011;4663;49.120;9.730;2023-08-24T02:50:59;71.45;;;67.50;;
9254;SDS011;4663;49.120;9.730;2023-08-24T02:53:26;76.80;;;72.75;;
9254;SDS011;4663;49.120;9.730;2023-08-24T02:55:52;75.55;;;71.32;;
9254;SDS011;4663;49.120;9.730;2023-08-24T02:58:18;74.57;;;70.55;;
9254;SDS011;4663;49.120;9.730;2023-08-24T03:00:44;76.40;;;72.60;;
9254;SDS011;4663;49.120;9.730;2023-08-24T03:03:09;72.85;;;69.07;;
9254;SDS011;4663;49.120;9.730;2023-08-24T03:05:34;73.47;;;69.18;;
9254;SDS011;4663;49.120;9.730;2023-08-24T03:08:01;71.32;;;67.45;;
9254;SDS011;4663;49.120;9.730;2023-08-24T03:10:26;64.53;;;61.10;;
9254;SDS011;4663;49.120;9.730;2023-08-24T03:12:52;69.20;;;65.57;;
9254;SDS011;4663;49.120;9.730;2023-08-24T03:15:17;66.43;;;62.63;;
9254;SDS011;4663;49.120;9.730;2023-08-24T03:17:43;68.43;;;64.82;;
9254;SDS011;4663;49.120;9.730;2023-08-24T03:20:08;64.80;;;61.28;;
9254;SDS011;4663;49.120;9.730;2023-08-24T03:22:35;66.20;;;62.55;;
9254;SDS011;4663;49.120;9.730;2023-08-24T03:25:01;60.70;;;57.40;;
9254;SDS011;4663;49.120;9.730;2023-08-24T03:27:26;62.78;;;59.30;;
9254;SDS011;4663;49.120;9.730;2023-08-24T03:29:53;63.45;;;59.85;;
9254;SDS011;4663;49.120;9.730;2023-08-24T03:32:19;57.97;;;54.67;;
9254;SDS011;4663;49.120;9.730;2023-08-24T03:34:44;57.65;;;54.63;;
9254;SDS011;4663;49.120;9.730;2023-08-24T03:37:10;57.53;;;54.38;;
9254;SDS011;4663;49.120;9.730;2023-08-24T03:39:38;63.70;;;60.17;;
9254;SDS011;4663;49.120;9.730;2023-08-24T03:42:03;59.83;;;56.53;;
9254;SDS011;4663;49.120;9.730;2023-08-24T03:44:29;63.97;;;60.08;;
9254;SDS011;4663;49.120;9.730;2023-08-24T03:46:54;58.45;;;55.45;;
9254;SDS011;4663;49.120;9.730;2023-08-24T03:49:20;60.00;;;56.65;;
9254;SDS011;4663;49.120;9.730;2023-08-24T03:51:45;59.13;;;55.75;;
9254;SDS011;4663;49.120;9.730;2023-08-24T03:54:10;51.45;;;48.70;;
9254;SDS011;4663;49.120;9.730;2023-08-24T03:56:36;52.20;;;48.95;;
9254;SDS011;4663;49.120;9.730;2023-08-24T03:59:01;53.38;;;50.20;;
9254;SDS011;4663;49.120;9.730;2023-08-24T04:01:27;55.08;;;52.00;;
9254;SDS011;4663;49.120;9.730;2023-08-24T04:03:52;53.65;;;50.45;;
9254;SDS011;4663;49.120;9.730;2023-08-24T04:06:18;53.70;;;50.85;;
9254;SDS011;4663;49.120;9.730;2023-08-24T04:08:44;49.58;;;46.92;;
9254;SDS011;4663;49.120;9.730;2023-08-24T04:11:10;49.78;;;47.08;;
9254;SDS011;4663;49.120;9.730;2023-08-24T04:13:35;52.67;;;49.75;;
9254;SDS011;4663;49.120;9.730;2023-08-24T04:16:01;58.70;;;55.50;;
9254;SDS011;4663;49.120;9.730;2023-08-24T04:18:26;61.72;;;58.40;;
9254;SDS011;4663;49.120;9.730;2023-08-24T04:20:52;60.42;;;57.00;;
9254;SDS011;4663;49.120;9.730;2023-08-24T04:23:24;59.83;;;56.80;;
9254;SDS011;4663;49.120;9.730;2023-08-24T04:25:53;61.95;;;58.42;;
9254;SDS011;4663;49.120;9.730;2023-08-24T04:28:19;57.55;;;54.53;;
9254;SDS011;4663;49.120;9.730;2023-08-24T04:30:51;58.55;;;55.05;;
9254;SDS011;4663;49.120;9.730;2023-08-24T04:33:23;50.08;;;47.20;;
9254;SDS011;4663;49.120;9.730;2023-08-24T04:35:48;49.92;;;46.78;;
9254;SDS011;4663;49.120;9.730;2023-08-24T04:38:15;55.60;;;52.47;;
9254;SDS011;4663;49.120;9.730;2023-08-24T04:40:59;61.90;;;58.65;;
9254;SDS011;4663;49.120;9.730;2023-08-24T04:43:25;62.25;;;58.80;;
9254;SDS011;4663;49.120;9.730;2023-08-24T04:45:51;60.88;;;57.75;;
9254;SDS011;4663;49.120;9.730;2023-08-24T04:48:21;61.22;;;57.90;;
9254;SDS011;4663;49.120;9.730;2023-08-24T04:50:48;66.50;;;62.85;;
9254;SDS011;4663;49.120;9.730;2023-08-24T04:53:15;66.88;;;63.38;;
9254;SDS011;4663;49.120;9.730;2023-08-24T04:55:44;71.57;;;67.65;;
9254;SDS011;4663;49.120;9.730;2023-08-24T04:58:12;72.57;;;68.70;;
9254;SDS011;4663;49.120;9.730;2023-08-24T05:00:39;67.22;;;63.63;;
9254;SDS011;4663;49.120;9.730;2023-08-24T05:03:05;65.95;;;62.58;;
9254;SDS011;4663;49.120;9.730;2023-08-24T05:05:32;68.60;;;65.03;;
9254;SDS011;4663;49.120;9.730;2023-08-24T05:07:59;73.30;;;69.22;;
9254;SDS011;4663;49.120;9.730;2023-08-24T05:10:29;68.10;;;64.63;;
9254;SDS011;4663;49.120;9.730;2023-08-24T05:13:03;68.90;;;65.47;;
9254;SDS011;4663;49.120;9.730;2023-08-24T05:15:33;62.97;;;59.70;;
9254;SDS011;4663;49.120;9.730;2023-08-24T05:17:58;53.58;;;50.67;;
9254;SDS011;4663;49.120;9.730;2023-08-24T05:20:27;57.75;;;54.58;;
9254;SDS011;4663;49.120;9.730;2023-08-24T05:22:52;53.28;;;50.20;;
9254;SDS011;4663;49.120;9.730;2023-08-24T05:25:20;52.42;;;49.45;;
9254;SDS011;4663;49.120;9.730;2023-08-24T05:27:46;61.72;;;58.47;;
9254;SDS011;4663;49.120;9.730;2023-08-24T05:30:12;59.72;;;56.65;;
9254;SDS011;4663;49.120;9.730;2023-08-24T05:32:40;59.90;;;56.58;;
9254;SDS011;4663;49.120;9.730;2023-08-24T05:35:05;59.45;;;56.30;;
9254;SDS011;4663;49.120;9.730;2023-08-24T05:37:32;57.85;;;54.63;;
9254;SDS011;4663;49.120;9.730;2023-08-24T05:39:58;57.25;;;54.00;;
9254;SDS011;4663;49.120;9.730;2023-08-24T05:42:25;55.92;;;53.08;;
9254;SDS011;4663;49.120;9.730;2023-08-24T05:44:50;49.15;;;46.58;;
9254;SDS011;4663;49.120;9.730;2023-08-24T05:47:15;47.20;;;44.63;;
9254;SDS011;4663;49.120;9.730;2023-08-24T05:49:41;45.42;;;42.97;;
9254;SDS011;4663;49.120;9.730;2023-08-24T05:52:06;51.58;;;48.70;;
9254;SDS011;4663;49.120;9.730;2023-08-24T05:54:31;54.97;;;52.00;;
9254;SDS011;4663;49.120;9.730;2023-08-24T05:56:57;50.03;;;47.40;;
9254;SDS011;4663;49.120;9.730;2023-08-24T05:59:25;43.83;;;41.30;;
9254;SDS011;4663;49.120;9.730;2023-08-24T06:01:51;37.70;;;35.63;;
9254;SDS011;4663;49.120;9.730;2023-08-24T06:04:16;40.13;;;37.65;;
9254;SDS011;4663;49.120;9.730;2023-08-24T06:06:42;42.65;;;40.38;;
9254;SDS011;4663;49.120;9.730;2023-08-24T06:09:07;40.45;;;37.83;;
9254;SDS011;4663;49.120;9.730;2023-08-24T06:11:33;32.42;;;30.67;;
9254;SDS011;4663;49.120;9.730;2023-08-24T06:13:58;33.10;;;31.08;;
9254;SDS011;4663;49.120;9.730;2023-08-24T06:16:24;34.38;;;32.20;;
9254;SDS011;4663;49.120;9.730;2023-08-24T06:18:49;30.58;;;28.55;;
9254;SDS011;4663;49.120;9.730;2023-08-24T06:21:15;31.85;;;29.88;;
9254;SDS011;4663;49.120;9.730;2023-08-24T06:23:41;34.20;;;31.95;;
9254;SDS011;4663;49.120;9.730;2023-08-24T06:26:06;31.83;;;29.58;;
9254;SDS011;4663;49.120;9.730;2023-08-24T06:28:32;26.15;;;24.55;;
9254;SDS011;4663;49.120;9.730;2023-08-24T06:30:59;24.65;;;23.25;;
9254;SDS011;4663;49.120;9.730;2023-08-24T06:33:28;23.98;;;22.50;;
9254;SDS011;4663;49.120;9.730;2023-08-24T06:35:55;25.17;;;23.20;;
9254;SDS011;4663;49.120;9.730;2023-08-24T06:38:21;24.13;;;22.73;;
9254;SDS011;4663;49.120;9.730;2023-08-24T06:40:47;28.30;;;26.45;;
9254;SDS011;4663;49.120;9.730;2023-08-24T06:43:12;28.70;;;27.20;;
9254;SDS011;4663;49.120;9.730;2023-08-24T06:45:37;27.67;;;26.08;;
9254;SDS011;4663;49.120;9.730;2023-08-24T06:48:03;26.45;;;25.00;;
9254;SDS011;4663;49.120;9.730;2023-08-24T06:50:30;30.20;;;28.23;;
9254;SDS011;4663;49.120;9.730;2023-08-24T06:52:56;29.73;;;28.17;;
9254;SDS011;4663;49.120;9.730;2023-08-24T06:55:21;32.15;;;30.45;;
9254;SDS011;4663;49.120;9.730;2023-08-24T06:57:47;32.13;;;30.13;;
9254;SDS011;4663;49.120;9.730;2023-08-24T07:00:16;31.70;;;29.88;;
9254;SDS011;4663;49.120;9.730;2023-08-24T07:02:42;31.08;;;29.30;;
9254;SDS011;4663;49.120;9.730;2023-08-24T07:05:07;33.42;;;31.30;;
9254;SDS011;4663;49.120;9.730;2023-08-24T07:07:34;30.30;;;28.58;;
9254;SDS011;4663;49.120;9.730;2023-08-24T07:09:59;29.90;;;27.73;;
9254;SDS011;4663;49.120;9.730;2023-08-24T07:12:25;29.08;;;27.48;;
9254;SDS011;4663;49.120;9.730;2023-08-24T07:14:50;31.65;;;29.52;;
9254;SDS011;4663;49.120;9.730;2023-08-24T07:17:16;28.50;;;27.00;;
9254;SDS011;4663;49.120;9.730;2023-08-24T07:19:41;30.08;;;28.27;;
9254;SDS011;4663;49.120;9.730;2023-08-24T07:22:06;26.83;;;25.25;;
9254;SDS011;4663;49.120;9.730;2023-08-24T07:24:33;26.55;;;24.98;;
9254;SDS011;4663;49.120;9.730;2023-08-24T07:26:58;28.83;;;27.05;;
9254;SDS011;4663;49.120;9.730;2023-08-24T07:29:24;30.25;;;28.63;;
9254;SDS011;4663;49.120;9.730;2023-08-24T07:31:49;27.80;;;26.25;;
9254;SDS011;4663;49.120;9.730;2023-08-24T07:34:14;29.15;;;27.63;;
9254;SDS011;4663;49.120;9.730;2023-08-24T07:36:40;29.05;;;27.55;;
9254;SDS011;4663;49.120;9.730;2023-08-24T07:39:07;27.05;;;25.02;;
9254;SDS011;4663;49.120;9.730;2023-08-24T07:41:32;23.73;;;22.30;;
9254;SDS011;4663;49.120;9.730;2023-08-24T07:43:58;25.08;;;23.35;;
9254;SDS011;4663;49.120;9.730;2023-08-24T07:46:23;22.70;;;21.30;;
9254;SDS011;4663;49.120;9.730;2023-08-24T07:48:49;27.90;;;26.27;;
9254;SDS011;4663;49.120;9.730;2023-08-24T07:51:15;27.70;;;26.30;;
9254;SDS011;4663;49.120;9.730;2023-08-24T07:53:40;28.25;;;26.20;;
9254;SDS011;4663;49.120;9.730;2023-08-24T07:56:06;26.23;;;24.63;;
9254;SDS011;4663;49.120;9.730;2023-08-24T07:58:32;24.27;;;22.83;;
9254;SDS011;4663;49.120;9.730;2023-08-24T08:00:58;27.10;;;25.70;;
9254;SDS011;4663;49.120;9.730;2023-08-24T08:03:25;29.08;;;27.33;;
9254;SDS011;4663;49.120;9.730;2023-08-24T08:05:51;27.40;;;25.85;;
9254;SDS011;4663;49.120;9.730;2023-08-24T08:08:16;25.83;;;24.27;;
9254;SDS011;4663;49.120;9.730;2023-08-24T08:10:42;25.00;;;23.63;;
9254;SDS011;4663;49.120;9.730;2023-08-24T08:13:08;27.17;;;25.38;;
9254;SDS011;4663;49.120;9.730;2023-08-24T08:15:36;23.42;;;22.25;;
9254;SDS011;4663;49.120;9.730;2023-08-24T08:18:03;42.90;;;40.45;;
9254;SDS011;4663;49.120;9.730;2023-08-24T08:20:29;47.88;;;45.45;;
9254;SDS011;4663;49.120;9.730;2023-08-24T08:22:55;41.20;;;39.15;;
9254;SDS011;4663;49.120;9.730;2023-08-24T08:25:20;34.45;;;32.63;;
9254;SDS011;4663;49.120;9.730;2023-08-24T08:27:47;28.25;;;26.45;;
9254;SDS011;4663;49.120;9.730;2023-08-24T08:30:13;27.30;;;25.38;;
9254;SDS011;4663;49.120;9.730;2023-08-24T08:32:39;28.13;;;26.40;;
9254;SDS011;4663;49.120;9.730;2023-08-24T08:35:05;26.35;;;24.92;;
9254;SDS011;4663;49.120;9.730;2023-08-24T08:37:30;28.35;;;26.95;;
9254;SDS011;4663;49.120;9.730;2023-08-24T08:39:57;31.48;;;29.35;;
9254;SDS011;4663;49.120;9.730;2023-08-24T08:42:23;28.75;;;27.35;;
9254;SDS011;4663;49.120;9.730;2023-08-24T08:44:48;30.27;;;28.38;;
9254;SDS011;4663;49.120;9.730;2023-08-24T08:47:14;31.85;;;29.63;;
9254;SDS011;4663;49.120;9.730;2023-08-24T08:49:43;41.95;;;39.78;;
9254;SDS011;4663;49.120;9.730;2023-08-24T08:52:10;42.97;;;40.50;;
9254;SDS011;4663;49.120;9.730;2023-08-24T08:54:36;43.13;;;40.97;;
9254;SDS011;4663;49.120;9.730;2023-08-24T08:57:02;44.03;;;41.38;;
9254;SDS011;4663;49.120;9.730;2023-08-24T08:59:28;36.85;;;34.72;;
9254;SDS011;4663;49.120;9.730;2023-08-24T09:01:55;29.88;;;28.23;;
9254;SDS011;4663;49.120;9.730;2023-08-24T09:04:23;27.40;;;25.90;;
9254;SDS011;4663;49.120;9.730;2023-08-24T09:06:49;27.17;;;25.67;;
9254;SDS011;4663;49.120;9.730;2023-08-24T09:09:15;25.48;;;24.08;;
9254;SDS011;4663;49.120;9.730;2023-08-24T09:11:40;34.15;;;32.35;;
9254;SDS011;4663;49.120;9.730;2023-08-24T09:14:07;25.88;;;24.38;;
9254;SDS011;4663;49.120;9.730;2023-08-24T09:16:32;27.05;;;25.58;;
9254;SDS011;4663;49.120;9.730;2023-08-24T09:18:58;26.63;;;25.17;;
9254;SDS011;4663;49.120;9.730;2023-08-24T09:21:23;31.70;;;29.80;;
9254;SDS011;4663;49.120;9.730;2023-08-24T09:23:52;30.95;;;29.05;;
9254;SDS011;4663;49.120;9.730;2023-08-24T09:26:29;26.85;;;25.40;;
9254;SDS011;4663;49.120;9.730;2023-08-24T09:28:57;25.65;;;24.20;;
9254;SDS011;4663;49.120;9.730;2023-08-24T09:31:23;29.30;;;27.80;;
9254;SDS011;4663;49.120;9.730;2023-08-24T09:34:02;35.03;;;32.97;;
9254;SDS011;4663;49.120;9.730;2023-08-24T09:36:37;38.05;;;35.92;;
9254;SDS011;4663;49.120;9.730;2023-08-24T09:39:04;38.17;;;36.08;;
9254;SDS011;4663;49.120;9.730;2023-08-24T09:41:46;35.25;;;33.38;;
9254;SDS011;4663;49.120;9.730;2023-08-24T09:44:17;39.08;;;36.92;;
9254;SDS011;4663;49.120;9.730;2023-08-24T09:46:43;39.33;;;37.13;;
9254;SDS011;4663;49.120;9.730;2023-08-24T09:49:09;39.25;;;37.30;;
9254;SDS011;4663;49.120;9.730;2023-08-24T09:51:36;35.78;;;33.78;;
9254;SDS011;4663;49.120;9.730;2023-08-24T09:54:04;40.53;;;38.47;;
9254;SDS011;4663;49.120;9.730;2023-08-24T09:56:33;39.90;;;37.90;;
9254;SDS011;4663;49.120;9.730;2023-08-24T09:59:00;39.80;;;37.80;;
9254;SDS011;4663;49.120;9.730;2023-08-24T10:01:38;39.85;;;37.55;;
9254;SDS011;4663;49.120;9.730;2023-08-24T10:04:09;40.30;;;38.15;;
9254;SDS011;4663;49.120;9.730;2023-08-24T10:06:36;39.17;;;37.13;;
9254;SDS011;4663;49.120;9.730;2023-08-24T10:09:04;38.28;;;36.28;;
9254;SDS011;4663;49.120;9.730;2023-08-24T10:11:34;37.85;;;35.83;;
9254;SDS011;4663;49.120;9.730;2023-08-24T10:14:10;38.72;;;36.63;;
9254;SDS011;4663;49.120;9.730;2023-08-24T10:16:38;41.25;;;39.05;;
9254;SDS011;4663;49.120;9.730;2023-08-24T10:19:04;40.35;;;38.30;;
9254;SDS011;4663;49.120;9.730;2023-08-24T10:21:31;39.88;;;37.78;;
9254;SDS011;4663;49.120;9.730;2023-08-24T10:23:56;37.00;;;34.67;;
9254;SDS011;4663;49.120;9.730;2023-08-24T10:26:23;37.03;;;35.03;;
9254;SDS011;4663;49.120;9.730;2023-08-24T10:28:51;37.33;;;35.33;;
9254;SDS011;4663;49.120;9.730;2023-08-24T10:31:18;36.45;;;34.60;;
9254;SDS011;4663;49.120;9.730;2023-08-24T10:33:45;38.38;;;36.38;;
9254;SDS011;4663;49.120;9.730;2023-08-24T10:36:12;40.05;;;37.65;;
9254;SDS011;4663;49.120;9.730;2023-08-24T10:38:42;37.10;;;35.00;;
9254;SDS011;4663;49.120;9.730;2023-08-24T10:41:08;37.75;;;35.85;;
9254;SDS011;4663;49.120;9.730;2023-08-24T10:43:38;41.13;;;38.80;;
9254;SDS011;4663;49.120;9.730;2023-08-24T10:46:04;38.13;;;35.83;;
9254;SDS011;4663;49.120;9.730;2023-08-24T10:53:57;35.50;;;33.70;;
9254;SDS011;4663;49.120;9.730;2023-08-24T10:56:37;35.60;;;33.63;;
9254;SDS011;4663;49.120;9.730;2023-08-24T11:01:40;39.70;;;37.22;;
9254;SDS011;4663;49.120;9.730;2023-08-24T11:04:20;36.08;;;34.22;;
9254;SDS011;4663;49.120;9.730;2023-08-24T11:09:22;34.88;;;33.05;;
9254;SDS011;4663;49.120;9.730;2023-08-24T11:11:55;35.67;;;33.78;;
9254;SDS011;4663;49.120;9.730;2023-08-24T11:14:23;35.22;;;33.40;;
9254;SDS011;4663;49.120;9.730;2023-08-24T11:16:51;31.48;;;29.60;;
9254;SDS011;4663;49.120;9.730;2023-08-24T11:19:17;32.50;;;30.50;;
9254;SDS011;4663;49.120;9.730;2023-08-24T11:21:44;32.42;;;30.73;;
9254;SDS011;4663;49.120;9.730;2023-08-24T11:24:12;31.52;;;30.02;;
9254;SDS011;4663;49.120;9.730;2023-08-24T11:26:42;34.10;;;31.90;;
9254;SDS011;4663;49.120;9.730;2023-08-24T11:29:09;34.63;;;32.88;;
9254;SDS011;4663;49.120;9.730;2023-08-24T11:31:35;40.35;;;38.28;;
9254;SDS011;4663;49.120;9.730;2023-08-24T11:34:02;37.15;;;35.08;;
9254;SDS011;4663;49.120;9.730;2023-08-24T11:36:29;34.17;;;32.28;;
9254;SDS011;4663;49.120;9.730;2023-08-24T11:38:56;36.30;;;33.85;;
9254;SDS011;4663;49.120;9.730;2023-08-24T11:41:23;32.63;;;31.02;;
9254;SDS011;4663;49.120;9.730;2023-08-24T11:43:49;30.25;;;28.65;;
9254;SDS011;4663;49.120;9.730;2023-08-24T11:46:24;36.55;;;34.47;;
9254;SDS011;4663;49.120;9.730;2023-08-24T11:48:49;35.25;;;33.45;;
9254;SDS011;4663;49.120;9.730;2023-08-24T11:51:16;36.55;;;34.47;;
9254;SDS011;4663;49.120;9.730;2023-08-24T11:53:42;34.97;;;33.00;;
9254;SDS011;4663;49.120;9.730;2023-08-24T11:56:09;43.70;;;41.45;;
9254;SDS011;4663;49.120;9.730;2023-08-24T11:58:42;37.65;;;35.50;;
9254;SDS011;4663;49.120;9.730;2023-08-24T12:01:09;40.00;;;37.75;;
9254;SDS011;4663;49.120;9.730;2023-08-24T12:03:39;46.97;;;44.58;;
9254;SDS011;4663;49.120;9.730;2023-08-24T12:06:12;37.65;;;35.75;;
9254;SDS011;4663;49.120;9.730;2023-08-24T12:08:39;44.20;;;41.97;;
9254;SDS011;4663;49.120;9.730;2023-08-24T12:11:13;48.90;;;46.40;;
9254;SDS011;4663;49.120;9.730;2023-08-24T12:13:48;47.78;;;45.38;;
9254;SDS011;4663;49.120;9.730;2023-08-24T12:16:16;45.83;;;43.60;;
9254;SDS011;4663;49.120;9.730;2023-08-24T12:18:46;48.22;;;45.60;;
9254;SDS011;4663;49.120;9.730;2023-08-24T12:21:18;48.13;;;45.53;;
9254;SDS011;4663;49.120;9.730;2023-08-24T12:23:45;46.47;;;44.25;;
9254;SDS011;4663;49.120;9.730;2023-08-24T12:26:30;46.00;;;43.78;;
9254;SDS011;4663;49.120;9.730;2023-08-24T12:28:59;44.17;;;41.88;;
9254;SDS011;4663;49.120;9.730;2023-08-24T12:31:27;42.13;;;39.80;;
9254;SDS011;4663;49.120;9.730;2023-08-24T12:36:26;35.75;;;33.88;;
9254;SDS011;4663;49.120;9.730;2023-08-24T12:38:52;35.28;;;33.05;;
9254;SDS011;4663;49.120;9.730;2023-08-24T12:41:18;35.70;;;33.70;;
9254;SDS011;4663;49.120;9.730;2023-08-24T12:43:44;37.22;;;35.28;;
9254;SDS011;4663;49.120;9.730;2023-08-24T12:46:09;37.47;;;35.45;;
9254;SDS011;4663;49.120;9.730;2023-08-24T12:48:35;35.33;;;33.58;;
9254;SDS011;4663;49.120;9.730;2023-08-24T12:51:00;36.42;;;34.47;;
9254;SDS011;4663;49.120;9.730;2023-08-24T12:53:25;34.80;;;32.95;;
9254;SDS011;4663;49.120;9.730;2023-08-24T12:55:51;34.17;;;32.28;;
9254;SDS011;4663;49.120;9.730;2023-08-24T12:58:16;35.40;;;33.55;;
9254;SDS011;4663;49.120;9.730;2023-08-24T13:00:43;34.60;;;32.80;;
9254;SDS011;4663;49.120;9.730;2023-08-24T13:03:09;34.88;;;32.90;;
9254;SDS011;4663;49.120;9.730;2023-08-24T13:05:34;37.03;;;34.97;;
9254;SDS011;4663;49.120;9.730;2023-08-24T13:08:00;30.95;;;29.30;;
9254;SDS011;4663;49.120;9.730;2023-08-24T13:10:25;31.02;;;29.38;;
9254;SDS011;4663;49.120;9.730;2023-08-24T13:12:51;31.42;;;29.63;;
9254;SDS011;4663;49.120;9.730;2023-08-24T13:15:16;32.30;;;30.20;;
9254;SDS011;4663;49.120;9.730;2023-08-24T13:17:41;42.17;;;39.85;;
9254;SDS011;4663;49.120;9.730;2023-08-24T13:20:07;46.85;;;44.40;;
9254;SDS011;4663;49.120;9.730;2023-08-24T13:22:33;48.80;;;46.17;;
9254;SDS011;4663;49.120;9.730;2023-08-24T13:24:58;43.67;;;41.50;;
9254;SDS011;4663;49.120;9.730;2023-08-24T13:27:24;45.80;;;43.28;;
9254;SDS011;4663;49.120;9.730;2023-08-24T13:29:49;46.60;;;44.28;;
9254;SDS011;4663;49.120;9.730;2023-08-24T13:32:15;49.55;;;47.15;;
9254;SDS011;4663;49.120;9.730;2023-08-24T13:34:40;45.70;;;43.33;;
9254;SDS011;4663;49.120;9.730;2023-08-24T13:37:05;45.08;;;42.60;;
9254;SDS011;4663;49.120;9.730;2023-08-24T13:39:31;34.85;;;32.90;;
9254;SDS011;4663;49.120;9.730;2023-08-24T13:41:59;32.45;;;30.50;;
9254;SDS011;4663;49.120;9.730;2023-08-24T13:44:25;31.02;;;29.42;;
9254;SDS011;4663;49.120;9.730;2023-08-24T13:46:50;30.23;;;28.38;;
9254;SDS011;4663;49.120;9.730;2023-08-24T13:49:19;31.13;;;29.42;;
9254;SDS011;4663;49.120;9.730;2023-08-24T13:51:45;32.40;;;30.67;;
9254;SDS011;4663;49.120;9.730;2023-08-24T13:54:14;30.38;;;28.77;;
9254;SDS011;4663;49.120;9.730;2023-08-24T13:56:41;29.70;;;28.13;;
9254;SDS011;4663;49.120;9.730;2023-08-24T13:59:07;32.35;;;30.40;;
9254;SDS011;4663;49.120;9.730;2023-08-24T14:01:32;34.08;;;32.17;;
9254;SDS011;4663;49.120;9.730;2023-08-24T14:03:58;32.35;;;30.45;;
9254;SDS011;4663;49.120;9.730;2023-08-24T14:06:24;36.50;;;34.40;;
9254;SDS011;4663;49.120;9.730;2023-08-24T14:08:49;38.63;;;36.60;;
9254;SDS011;4663;49.120;9.730;2023-08-24T14:11:14;47.25;;;44.85;;
9254;SDS011;4663;49.120;9.730;2023-08-24T14:13:41;64.38;;;61.08;;
9254;SDS011;4663;49.120;9.730;2023-08-24T14:16:07;47.83;;;44.95;;
9254;SDS011;4663;49.120;9.730;2023-08-24T14:18:32;49.72;;;47.30;;
9254;SDS011;4663;49.120;9.730;2023-08-24T14:21:01;44.28;;;42.03;;
9254;SDS011;4663;49.120;9.730;2023-08-24T14:23:27;48.70;;;46.30;;
9254;SDS011;4663;49.120;9.730;2023-08-24T14:25:52;49.13;;;46.53;;
9254;SDS011;4663;49.120;9.730;2023-08-24T14:28:19;50.25;;;47.55;;
9254;SDS011;4663;49.120;9.730;2023-08-24T14:30:46;51.22;;;48.58;;
9254;SDS011;4663;49.120;9.730;2023-08-24T14:33:12;54.92;;;51.97;;
9254;SDS011;4663;49.120;9.730;2023-08-24T14:35:37;54.35;;;51.60;;
9254;SDS011;4663;49.120;9.730;2023-08-24T14:38:03;52.08;;;49.45;;
9254;SDS011;4663;49.120;9.730;2023-08-24T14:40:28;52.85;;;50.15;;
9254;SDS011;4663;49.120;9.730;2023-08-24T14:42:53;46.50;;;43.60;;
9254;SDS011;4663;49.120;9.730;2023-08-24T14:45:20;56.63;;;53.75;;
9254;SDS011;4663;49.120;9.730;2023-08-24T14:47:45;52.40;;;49.72;;
9254;SDS011;4663;49.120;9.730;2023-08-24T14:50:11;61.80;;;58.53;;
9254;SDS011;4663;49.120;9.730;2023-08-24T14:52:37;64.78;;;61.67;;
9254;SDS011;4663;49.120;9.730;2023-08-24T14:55:03;55.63;;;52.80;;
9254;SDS011;4663;49.120;9.730;2023-08-24T14:57:29;58.50;;;55.35;;
9254;SDS011;4663;49.120;9.730;2023-08-24T14:59:58;91.07;;;86.65;;
9254;SDS011;4663;49.120;9.730;2023-08-24T15:02:23;82.82;;;78.70;;
9254;SDS011;4663;49.120;9.730;2023-08-24T15:04:51;91.65;;;87.07;;
9254;SDS011;4663;49.120;9.730;2023-08-24T15:07:16;87.00;;;82.60;;